createdAt,value
2019-01-10T00:00:34.612Z,100220.05
2019-01-10T00:03:04.025Z,100228.59
2019-01-10T00:05:33.408Z,100233.13
2019-01-10T00:08:03.179Z,100222.86
2019-01-10T00:10:32.814Z,100229.71
2019-01-10T00:13:02.232Z,100236.47
2019-01-10T00:15:32.100Z,100240.17
2019-01-10T00:18:01.423Z,100243.94
2019-01-10T00:20:31.037Z,100248.20
2019-01-10T00:23:01.027Z,100244.48
2019-01-10T00:25:30.617Z,100241.23
2019-01-10T00:27:59.958Z,100239.92
2019-01-10T00:30:29.774Z,100247.67
2019-01-10T00:32:59.445Z,100250.77
2019-01-10T00:35:29.094Z,100255.21
2019-01-10T00:37:58.437Z,100263.56
2019-01-10T00:40:27.765Z,100266.53
2019-01-10T00:42:57.115Z,100267.70
2019-01-10T00:45:26.451Z,100270.38
2019-01-10T00:47:56.201Z,100266.83
2019-01-10T00:50:26.505Z,100267.66
2019-01-10T00:52:55.825Z,100277.05
2019-01-10T00:55:25.403Z,100279.89
2019-01-10T00:57:54.833Z,100288.72
2019-01-10T01:00:26.678Z,100296.25
2019-01-10T01:02:55.985Z,100297.03
2019-01-10T01:05:25.372Z,100306.60
2019-01-10T01:07:54.779Z,100309.57
2019-01-10T01:10:27.265Z,100309.73
2019-01-10T01:12:58.674Z,100317.80
2019-01-10T01:15:28.010Z,100319.11
2019-01-10T01:17:57.629Z,100322.92
2019-01-10T01:20:27.565Z,100325.21
2019-01-10T01:22:57.239Z,100326.70
2019-01-10T01:25:26.557Z,100340.22
2019-01-10T01:27:56.113Z,100339.84
2019-01-10T01:30:30.583Z,100341.46
2019-01-10T01:33:00.945Z,100345.74
2019-01-10T01:35:30.741Z,100350.08
2019-01-10T01:38:02.934Z,100355.19
2019-01-10T01:40:32.437Z,100360.74
2019-01-10T01:43:07.278Z,100363.75
2019-01-10T01:45:32.848Z,100356.59
2019-01-10T01:48:02.169Z,100362.83
2019-01-10T01:50:32.497Z,100367.91
2019-01-10T01:53:02.112Z,100373.50
2019-01-10T01:55:31.475Z,100375.52
2019-01-10T01:58:00.806Z,100377.42
2019-01-10T02:00:31.533Z,100383.83
2019-01-10T02:03:03.486Z,100386.84
2019-01-10T02:05:33.174Z,100393.53
2019-01-10T02:08:02.922Z,100401.75
2019-01-10T02:10:34.311Z,100395.09
2019-01-10T02:13:03.650Z,100397.14
2019-01-10T02:15:32.952Z,100393.66
2019-01-10T02:18:04.153Z,100402.77
2019-01-10T02:20:33.552Z,100400.61
2019-01-10T02:23:05.384Z,100401.62
2019-01-10T02:25:34.709Z,100403.47
2019-01-10T02:28:04.408Z,100402.20
2019-01-10T02:30:42.513Z,100401.10
2019-01-10T02:33:11.886Z,100407.50
2019-01-10T02:35:41.562Z,100413.55
2019-01-10T02:38:10.867Z,100418.47
2019-01-10T02:40:40.184Z,100416.98
2019-01-10T02:43:09.889Z,100421.34
2019-01-10T02:45:41.163Z,100424.19
2019-01-10T02:48:10.610Z,100427.53
2019-01-10T02:50:40.116Z,100432.95
2019-01-10T02:53:11.920Z,100436.43
2019-01-10T02:55:42.653Z,100437.06
2019-01-10T02:58:12.063Z,100437.91
2019-01-10T03:00:41.503Z,100443.58
2019-01-10T03:03:11.432Z,100446.28
2019-01-10T03:05:42.490Z,100454.77
2019-01-10T03:08:11.837Z,100455.31
2019-01-10T03:10:41.918Z,100454.22
2019-01-10T03:13:11.249Z,100455.31
2019-01-10T03:15:41.011Z,100456.84
2019-01-10T03:18:11.013Z,100459.67
2019-01-10T03:20:41.006Z,100463.58
2019-01-10T03:23:10.345Z,100466.89
2019-01-10T03:25:40.222Z,100467.52
2019-01-10T03:28:10.577Z,100464.30
2019-01-10T03:30:40.474Z,100472.52
2019-01-10T03:33:10.845Z,100469.89
2019-01-10T03:35:40.598Z,100469.66
2019-01-10T03:38:10.451Z,100467.00
2019-01-10T03:40:39.806Z,100473.33
2019-01-10T03:43:09.229Z,100476.97
2019-01-10T03:45:38.866Z,100477.77
2019-01-10T03:48:08.192Z,100483.62
2019-01-10T03:50:37.961Z,100486.80
2019-01-10T03:53:07.794Z,100488.70
2019-01-10T03:55:38.588Z,100487.34
2019-01-10T03:58:10.807Z,100487.73
2019-01-10T04:00:40.135Z,100490.86
2019-01-10T04:03:10.440Z,100491.02
2019-01-10T04:05:40.253Z,100489.62
2019-01-10T04:08:09.851Z,100491.70
2019-01-10T04:10:39.596Z,100500.44
2019-01-10T04:13:08.961Z,100499.89
2019-01-10T04:15:38.657Z,100507.62
2019-01-10T04:18:08.480Z,100511.33
2019-01-10T04:20:38.092Z,100514.17
2019-01-10T04:23:07.787Z,100520.62
2019-01-10T04:25:37.118Z,100520.23
2019-01-10T04:28:06.502Z,100525.50
2019-01-10T04:30:36.203Z,100533.81
2019-01-10T04:33:06.023Z,100532.28
2019-01-10T04:35:35.352Z,100536.70
2019-01-10T04:38:04.700Z,100540.50
2019-01-10T04:40:34.271Z,100542.88
2019-01-10T04:43:03.724Z,100545.77
2019-01-10T04:45:33.430Z,100549.16
2019-01-10T04:48:04.253Z,100548.77
2019-01-10T04:50:37.055Z,100553.94
2019-01-10T04:53:06.403Z,100554.88
2019-01-10T04:55:36.156Z,100555.43
2019-01-10T04:58:05.490Z,100559.75
2019-01-10T05:00:34.891Z,100559.84
2019-01-10T05:03:04.575Z,100563.78
2019-01-10T05:05:34.274Z,100566.11
2019-01-10T05:08:03.648Z,100570.09
2019-01-10T05:10:33.285Z,100572.00
2019-01-10T05:13:02.672Z,100572.47
2019-01-10T05:15:32.008Z,100578.48
2019-01-10T05:18:01.325Z,100579.63
2019-01-10T05:20:30.652Z,100579.63
2019-01-10T05:22:59.991Z,100587.44
2019-01-10T05:25:29.317Z,100590.19
2019-01-10T05:27:59.454Z,100591.97
2019-01-10T05:30:29.035Z,100592.27
2019-01-10T05:32:58.798Z,100597.91
2019-01-10T05:35:28.218Z,100606.00
2019-01-10T05:37:57.779Z,100606.22
2019-01-10T05:40:29.110Z,100599.73
2019-01-10T05:42:58.574Z,100604.30
2019-01-10T05:45:29.631Z,100605.84
2019-01-10T05:47:59.208Z,100607.79
2019-01-10T05:50:29.374Z,100610.77
2019-01-10T05:52:58.802Z,100613.27
2019-01-10T05:55:30.127Z,100613.84
2019-01-10T05:57:59.809Z,100613.71
2019-01-10T06:00:29.191Z,100614.65
2019-01-10T06:02:58.579Z,100616.75
2019-01-10T06:05:28.500Z,100616.92
2019-01-10T06:08:00.371Z,100619.58
2019-01-10T06:10:30.130Z,100623.30
2019-01-10T06:13:01.518Z,100628.42
2019-01-10T06:15:31.739Z,100626.64
2019-01-10T06:18:03.051Z,100636.15
2019-01-10T06:20:32.390Z,100638.21
2019-01-10T06:23:02.044Z,100639.59
2019-01-10T06:25:34.164Z,100644.39
2019-01-10T06:28:03.509Z,100641.59
2019-01-10T06:30:34.937Z,100643.83
2019-01-10T06:33:05.087Z,100648.52
2019-01-10T06:35:34.619Z,100649.94
2019-01-10T06:38:04.213Z,100653.97
2019-01-10T06:40:33.907Z,100658.01
2019-01-10T06:43:04.755Z,100655.84
2019-01-10T06:45:34.354Z,100659.20
2019-01-10T06:48:04.095Z,100657.91
2019-01-10T06:50:33.422Z,100665.79
2019-01-10T06:53:02.801Z,100670.46
2019-01-10T06:55:32.482Z,100671.23
2019-01-10T06:58:02.624Z,100674.30
2019-01-10T07:00:32.245Z,100676.93
2019-01-10T07:03:02.069Z,100679.86
2019-01-10T07:05:32.295Z,100676.02
2019-01-10T07:08:01.950Z,100685.02
2019-01-10T07:10:31.266Z,100684.44
2019-01-10T07:13:00.594Z,100695.78
2019-01-10T07:15:30.074Z,100690.65
2019-01-10T07:17:59.415Z,100699.45
2019-01-10T07:20:30.347Z,100702.84
2019-01-10T07:22:59.666Z,100707.05
2019-01-10T07:25:29.339Z,100699.06
2019-01-10T07:28:08.073Z,100710.78
2019-01-10T07:30:37.392Z,100714.16
2019-01-10T07:33:11.960Z,100712.66
2019-01-10T07:35:41.405Z,100715.95
2019-01-10T07:38:10.803Z,100713.59
2019-01-10T07:40:40.476Z,100718.85
2019-01-10T07:43:12.129Z,100728.23
2019-01-10T07:45:41.734Z,100729.17
2019-01-10T07:48:11.656Z,100730.76
2019-01-10T07:50:40.992Z,100729.70
2019-01-10T07:53:10.589Z,100733.84
2019-01-10T07:55:39.905Z,100740.22
2019-01-10T07:58:12.076Z,100738.17
2019-01-10T08:00:41.402Z,100738.91
2019-01-10T08:03:11.131Z,100752.63
2019-01-10T08:05:40.472Z,100749.05
2019-01-10T08:08:09.838Z,100750.95
2019-01-10T08:10:39.648Z,100753.48
2019-01-10T08:13:09.023Z,100757.89
2019-01-10T08:15:38.333Z,100757.36
2019-01-10T08:18:08.228Z,100769.83
2019-01-10T08:20:37.566Z,100775.91
2019-01-10T08:23:06.890Z,100774.77
2019-01-10T08:25:36.223Z,100775.91
2019-01-10T08:28:05.594Z,100781.16
2019-01-10T08:30:34.903Z,100792.33
2019-01-10T08:33:04.495Z,100788.69
2019-01-10T08:35:34.181Z,100797.12
2019-01-10T08:38:03.505Z,100794.88
2019-01-10T08:40:32.882Z,100804.06
2019-01-10T08:43:02.239Z,100802.56
2019-01-10T08:45:31.900Z,100804.65
2019-01-10T08:48:01.197Z,100807.08
2019-01-10T08:50:31.407Z,100802.02
2019-01-10T08:53:00.726Z,100815.43
2019-01-10T08:55:30.350Z,100820.95
2019-01-10T08:57:59.920Z,100827.91
2019-01-10T09:00:29.240Z,100829.95
2019-01-10T09:02:58.571Z,100832.77
2019-01-10T09:05:28.156Z,100827.52
2019-01-10T09:07:57.852Z,100840.66
2019-01-10T09:10:27.462Z,100839.27
2019-01-10T09:12:57.079Z,100842.28
2019-01-10T09:15:34.293Z,100843.09
2019-01-10T09:17:57.705Z,100843.67
2019-01-10T09:20:31.218Z,100841.97
2019-01-10T09:23:00.825Z,100847.42
2019-01-10T09:25:30.424Z,100847.03
2019-01-10T09:28:00.032Z,100857.73
2019-01-10T09:30:29.362Z,100855.88
2019-01-10T09:33:06.135Z,100863.77
2019-01-10T09:35:35.465Z,100863.48
2019-01-10T09:38:04.867Z,100864.99
2019-01-10T09:40:34.204Z,100869.40
2019-01-10T09:43:03.542Z,100875.97
2019-01-10T09:45:32.863Z,100873.15
2019-01-10T09:48:03.014Z,100882.54
2019-01-10T09:50:32.431Z,100884.05
2019-01-10T09:53:01.770Z,100886.56
2019-01-10T09:55:31.183Z,100893.33
2019-01-10T09:58:00.537Z,100897.58
2019-01-10T10:00:32.641Z,100896.42
2019-01-10T10:03:02.146Z,100901.98
2019-01-10T10:05:31.471Z,100904.50
2019-01-10T10:08:01.064Z,100913.69
2019-01-10T10:10:30.392Z,100904.22
2019-01-10T10:12:59.746Z,100915.94
2019-01-10T10:15:29.819Z,100918.37
2019-01-10T10:17:59.761Z,100915.39
2019-01-10T10:20:32.199Z,100917.75
2019-01-10T10:23:01.500Z,100921.92
2019-01-10T10:25:31.128Z,100924.94
2019-01-10T10:28:00.453Z,100926.30
2019-01-10T10:30:30.048Z,100930.70
2019-01-10T10:32:59.635Z,100927.06
2019-01-10T10:35:29.275Z,100930.73
2019-01-10T10:37:58.875Z,100926.30
2019-01-10T10:40:28.479Z,100932.23
2019-01-10T10:42:57.895Z,100929.02
2019-01-10T10:45:27.506Z,100935.03
2019-01-10T10:47:56.889Z,100933.53
2019-01-10T10:50:47.595Z,100936.54
2019-01-10T10:53:17.212Z,100935.50
2019-01-10T10:55:46.579Z,100937.19
2019-01-10T10:58:16.201Z,100928.20
2019-01-10T11:00:45.821Z,100934.47
2019-01-10T11:03:15.157Z,100932.42
2019-01-10T11:05:44.862Z,100933.83
2019-01-10T11:08:14.175Z,100932.98
2019-01-10T11:10:43.526Z,100930.82
2019-01-10T11:13:12.869Z,100930.23
2019-01-10T11:15:42.877Z,100932.13
2019-01-10T11:18:12.569Z,100935.88
2019-01-10T11:20:41.885Z,100939.63
2019-01-10T11:23:11.222Z,100932.29
2019-01-10T11:25:40.873Z,100939.71
2019-01-10T11:28:10.590Z,100943.47
2019-01-10T11:30:39.953Z,100938.05
2019-01-10T11:33:09.273Z,100938.16
2019-01-10T11:35:38.891Z,100937.30
2019-01-10T11:38:08.499Z,100934.00
2019-01-10T11:40:37.841Z,100933.81
2019-01-10T11:43:07.491Z,100923.31
2019-01-10T11:45:36.794Z,100928.83
2019-01-10T11:48:06.419Z,100922.18
2019-01-10T11:50:35.735Z,100923.11
2019-01-10T11:53:05.042Z,100920.75
2019-01-10T11:55:35.236Z,100916.35
2019-01-10T11:58:04.841Z,100928.57
2019-01-10T12:00:34.175Z,100909.49
2019-01-10T12:03:03.840Z,100914.63
2019-01-10T12:05:33.188Z,100917.84
2019-01-10T12:08:02.486Z,100915.20
2019-01-10T12:10:32.158Z,100908.06
2019-01-10T12:13:01.767Z,100906.58
2019-01-10T12:15:31.115Z,100914.09
2019-01-10T12:18:03.533Z,100909.19
2019-01-10T12:20:32.853Z,100909.94
2019-01-10T12:23:02.562Z,100881.60
2019-01-10T12:25:32.171Z,100910.72
2019-01-10T12:28:01.948Z,100912.10
2019-01-10T12:30:31.584Z,100921.42
2019-01-10T12:33:00.923Z,100914.84
2019-01-10T12:35:30.916Z,100914.09
2019-01-10T12:38:00.686Z,100916.36
2019-01-10T12:40:30.354Z,100920.93
2019-01-10T12:42:59.944Z,100916.14
2019-01-10T12:45:29.303Z,100918.40
2019-01-10T12:47:58.628Z,100919.16
2019-01-10T12:50:29.673Z,100917.95
2019-01-10T12:52:59.014Z,100923.78
2019-01-10T12:55:28.334Z,100933.70
2019-01-10T12:57:57.917Z,100932.59
2019-01-10T13:00:27.602Z,100937.94
2019-01-10T13:02:57.906Z,100935.48
2019-01-10T13:05:27.293Z,100890.13
2019-01-10T13:08:03.374Z,100936.62
2019-01-10T13:10:28.493Z,100928.74
2019-01-10T13:12:57.827Z,100927.23
2019-01-10T13:15:27.683Z,100939.83
2019-01-10T13:17:57.005Z,100947.92
2019-01-10T13:20:26.702Z,100951.20
2019-01-10T13:22:56.412Z,100959.81
2019-01-10T13:25:26.122Z,100952.12
2019-01-10T13:27:57.209Z,100952.20
2019-01-10T13:30:27.012Z,100962.13
2019-01-10T13:32:56.714Z,100955.16
2019-01-10T13:35:26.386Z,100957.72
2019-01-10T13:37:55.734Z,100957.53
2019-01-10T13:40:25.227Z,100914.66
2019-01-10T13:42:54.523Z,100967.91
2019-01-10T13:45:24.278Z,100973.09
2019-01-10T13:47:53.722Z,100967.84
2019-01-10T13:50:26.097Z,100975.27
2019-01-10T13:52:55.747Z,100984.31
2019-01-10T13:55:25.123Z,100979.91
2019-01-10T13:57:54.802Z,100980.10
2019-01-10T14:00:35.278Z,100980.97
2019-01-10T14:02:58.339Z,100979.47
2019-01-10T14:05:28.939Z,100983.07
2019-01-10T14:07:58.664Z,100991.14
2019-01-10T14:10:28.275Z,100992.25
2019-01-10T14:12:58.017Z,100993.27
2019-01-10T14:15:29.988Z,100990.03
2019-01-10T14:17:59.676Z,100986.23
2019-01-10T14:20:30.672Z,100994.98
2019-01-10T14:23:00.301Z,100999.59
2019-01-10T14:25:30.012Z,100989.06
2019-01-10T14:27:59.843Z,101000.63
2019-01-10T14:30:32.557Z,101004.49
2019-01-10T14:33:02.163Z,101009.63
2019-01-10T14:35:31.951Z,101005.80
2019-01-10T14:38:01.319Z,101006.52
2019-01-10T14:40:30.641Z,101009.59
2019-01-10T14:43:00.444Z,101012.50
2019-01-10T14:45:29.789Z,101010.95
2019-01-10T14:48:01.865Z,101011.38
2019-01-10T14:50:30.207Z,101014.08
2019-01-10T14:52:59.815Z,101006.66
2019-01-10T14:55:29.138Z,101006.12
2019-01-10T14:57:58.720Z,101009.73
2019-01-10T15:00:28.412Z,101010.50
2019-01-10T15:02:57.815Z,101020.44
2019-01-10T15:05:27.414Z,101017.74
2019-01-10T15:07:57.575Z,101019.44
2019-01-10T15:10:27.163Z,101022.14
2019-01-10T15:12:56.473Z,101021.73
2019-01-10T15:15:26.146Z,101024.75
2019-01-10T15:17:55.783Z,101034.38
2019-01-10T15:20:28.557Z,101040.38
2019-01-10T15:22:57.879Z,101038.16
2019-01-10T15:25:27.551Z,101039.22
2019-01-10T15:27:57.155Z,101045.89
2019-01-10T15:30:28.315Z,101044.01
2019-01-10T15:32:57.650Z,101042.98
2019-01-10T15:35:27.312Z,101043.05
2019-01-10T15:37:56.933Z,101043.45
2019-01-10T15:40:29.379Z,101049.80
2019-01-10T15:42:58.716Z,101045.68
2019-01-10T15:45:28.301Z,101047.17
2019-01-10T15:47:57.959Z,101047.99
2019-01-10T15:50:27.278Z,101046.36
2019-01-10T15:52:56.905Z,101044.73
2019-01-10T15:55:26.504Z,101055.62
2019-01-10T15:57:55.815Z,101058.89
2019-01-10T16:00:25.642Z,101061.20
2019-01-10T16:02:54.954Z,101059.17
2019-01-10T16:05:24.517Z,101064.17
2019-01-10T16:07:54.250Z,101065.81
2019-01-10T16:10:23.559Z,101064.53
2019-01-10T16:12:52.872Z,101065.09
2019-01-10T16:15:24.323Z,101072.09
2019-01-10T16:17:53.892Z,101069.64
2019-01-10T16:20:23.198Z,101080.50
2019-01-10T16:22:52.536Z,101075.20
2019-01-10T16:25:22.232Z,101078.22
2019-01-10T16:27:51.841Z,101071.88
2019-01-10T16:30:24.393Z,101077.80
2019-01-10T16:32:54.038Z,101075.52
2019-01-10T16:35:23.366Z,101075.88
2019-01-10T16:37:52.703Z,101078.51
2019-01-10T16:40:22.041Z,101073.82
2019-01-10T16:42:51.374Z,101078.29
2019-01-10T16:45:26.868Z,101084.85
2019-01-10T16:47:56.224Z,101085.83
2019-01-10T16:50:25.995Z,101087.72
2019-01-10T16:52:55.329Z,101086.16
2019-01-10T16:55:24.986Z,101090.16
2019-01-10T16:57:54.595Z,101086.22
2019-01-10T17:00:27.602Z,101088.28
2019-01-10T17:02:57.186Z,101093.53
2019-01-10T17:05:26.796Z,101091.05
2019-01-10T17:07:56.174Z,101096.50
2019-01-10T17:10:25.499Z,101101.89
2019-01-10T17:12:54.800Z,101096.64
2019-01-10T17:15:24.405Z,101103.88
2019-01-10T17:17:53.734Z,101101.20
2019-01-10T17:20:25.971Z,101099.90
2019-01-10T17:22:55.287Z,101102.69
2019-01-10T17:25:24.675Z,101101.89
2019-01-10T17:27:54.297Z,101105.63
2019-01-10T17:30:26.761Z,101108.24
2019-01-10T17:32:56.383Z,101111.02
2019-01-10T17:35:31.138Z,101111.09
2019-01-10T17:38:00.463Z,101117.12
2019-01-10T17:40:30.075Z,101117.58
2019-01-10T17:42:59.447Z,101107.38
2019-01-10T17:45:31.767Z,101123.05
2019-01-10T17:48:01.455Z,101117.12
2019-01-10T17:50:32.674Z,101121.35
2019-01-10T17:53:02.004Z,101124.16
2019-01-10T17:55:31.319Z,101120.28
2019-01-10T17:58:00.666Z,101120.61
2019-01-10T18:00:32.676Z,101122.33
2019-01-10T18:03:02.001Z,101122.77
2019-01-10T18:05:33.486Z,101129.91
2019-01-10T18:08:02.866Z,101133.84
2019-01-10T18:10:32.262Z,101131.58
2019-01-10T18:13:02.444Z,101131.91
2019-01-10T18:15:31.814Z,101135.05
2019-01-10T18:18:01.415Z,101130.41
2019-01-10T18:20:36.069Z,101136.13
2019-01-10T18:23:05.855Z,101141.44
2019-01-10T18:25:35.515Z,101138.00
2019-01-10T18:28:04.983Z,101142.92
2019-01-10T18:30:34.267Z,101144.23
2019-01-10T18:33:03.581Z,101138.74
2019-01-10T18:35:32.936Z,101135.66
2019-01-10T18:38:02.512Z,101135.21
2019-01-10T18:40:31.881Z,101142.63
2019-01-10T18:43:01.213Z,101144.69
2019-01-10T18:45:31.736Z,101148.09
2019-01-10T18:48:01.355Z,101154.89
2019-01-10T18:50:30.987Z,101146.79
2019-01-10T18:53:00.303Z,101151.35
2019-01-10T18:55:29.877Z,101153.19
2019-01-10T18:57:59.515Z,101152.89
2019-01-10T19:00:32.424Z,101160.53
2019-01-10T19:03:01.811Z,101155.97
2019-01-10T19:05:31.163Z,101159.58
2019-01-10T19:08:00.512Z,101116.63
2019-01-10T19:10:29.872Z,101156.79
2019-01-10T19:12:59.488Z,101158.04
2019-01-10T19:15:28.885Z,101160.72
2019-01-10T19:18:03.312Z,101160.37
2019-01-10T19:20:29.870Z,101159.22
2019-01-10T19:22:59.490Z,101161.45
2019-01-10T19:25:28.825Z,101159.38
2019-01-10T19:27:58.464Z,101157.16
2019-01-10T19:30:30.312Z,101169.62
2019-01-10T19:32:59.721Z,101164.23
2019-01-10T19:35:29.136Z,101162.47
2019-01-10T19:37:58.464Z,101161.45
2019-01-10T19:40:27.793Z,101167.16
2019-01-10T19:42:57.394Z,101169.94
2019-01-10T19:45:26.739Z,101171.42
2019-01-10T19:47:56.039Z,101169.72
2019-01-10T19:50:26.908Z,101163.61
2019-01-10T19:52:56.588Z,101167.08
2019-01-10T19:55:25.949Z,101163.77
2019-01-10T19:57:57.179Z,101165.62
2019-01-10T20:00:33.805Z,101171.48
2019-01-10T20:03:03.441Z,101172.63
2019-01-10T20:05:32.904Z,101171.71
2019-01-10T20:08:02.213Z,101177.58
2019-01-10T20:10:34.305Z,101183.35
2019-01-10T20:13:03.619Z,101176.66
2019-01-10T20:15:33.319Z,101176.72
2019-01-10T20:18:02.758Z,101179.42
2019-01-10T20:20:36.523Z,101176.89
2019-01-10T20:23:07.480Z,101179.74
2019-01-10T20:25:39.356Z,101182.91
2019-01-10T20:28:09.139Z,101189.30
2019-01-10T20:30:38.889Z,101187.66
2019-01-10T20:33:08.232Z,101183.38
2019-01-10T20:35:37.901Z,101187.91
2019-01-10T20:38:07.242Z,101188.05
2019-01-10T20:40:36.851Z,101194.14
2019-01-10T20:43:06.153Z,101185.42
2019-01-10T20:45:35.855Z,101184.21
2019-01-10T20:48:05.189Z,101185.77
2019-01-10T20:50:34.516Z,101181.65
2019-01-10T20:53:03.896Z,101181.98
2019-01-10T20:55:33.469Z,101187.06
2019-01-10T20:58:03.057Z,101188.60
2019-01-10T21:00:32.654Z,101188.14
2019-01-10T21:03:02.005Z,101193.07
2019-01-10T21:05:31.335Z,101188.14
2019-01-10T21:08:01.411Z,101193.01
2019-01-10T21:10:30.929Z,101191.75
2019-01-10T21:13:00.545Z,101196.48
2019-01-10T21:15:30.518Z,101197.15
2019-01-10T21:17:59.948Z,101182.17
2019-01-10T21:20:29.574Z,101203.80
2019-01-10T21:22:59.588Z,101201.33
2019-01-10T21:25:28.983Z,101202.72
2019-01-10T21:27:59.159Z,101190.77
2019-01-10T21:30:28.828Z,101196.86
2019-01-10T21:32:58.213Z,101202.96
2019-01-10T21:35:28.032Z,101192.59
2019-01-10T21:37:57.441Z,101194.13
2019-01-10T21:40:27.316Z,101194.00
2019-01-10T21:42:57.307Z,101194.84
2019-01-10T21:45:26.665Z,101199.17
2019-01-10T21:47:56.333Z,101203.50
2019-01-10T21:50:27.398Z,101207.25
2019-01-10T21:52:56.966Z,101197.48
2019-01-10T21:55:26.301Z,101204.48
2019-01-10T21:57:55.660Z,101202.56
2019-01-10T22:00:31.635Z,101205.23
2019-01-10T22:03:01.547Z,101205.25
2019-01-10T22:05:30.977Z,101206.54
2019-01-10T22:08:00.732Z,101204.16
2019-01-10T22:10:31.434Z,101201.85
2019-01-10T22:13:00.791Z,101200.70
2019-01-10T22:15:31.132Z,101201.02
2019-01-10T22:18:04.573Z,101199.84
2019-01-10T22:20:34.260Z,101199.02
2019-01-10T22:23:03.576Z,101197.56
2019-01-10T22:25:32.925Z,101205.56
2019-01-10T22:28:02.267Z,101197.68
2019-01-10T22:30:31.888Z,101199.55
2019-01-10T22:33:01.475Z,101193.67
2019-01-10T22:35:31.110Z,101191.22
2019-01-10T22:38:00.680Z,101189.23
2019-01-10T22:40:30.249Z,101192.45
2019-01-10T22:42:59.587Z,101187.59
2019-01-10T22:45:29.191Z,101193.01
2019-01-10T22:47:58.517Z,101191.68
2019-01-10T22:50:28.274Z,101197.72
2019-01-10T22:52:57.599Z,101194.96
2019-01-10T22:55:27.200Z,101194.66
2019-01-10T22:57:57.283Z,101197.30
2019-01-10T23:00:41.885Z,101195.77
2019-01-10T23:03:11.478Z,101196.01
2019-01-10T23:05:46.446Z,101201.17
2019-01-10T23:08:16.068Z,101205.39
2019-01-10T23:10:45.434Z,101208.80
2019-01-10T23:13:15.030Z,101204.02
2019-01-10T23:15:44.387Z,101204.71
2019-01-10T23:18:14.006Z,101201.65
2019-01-10T23:20:43.333Z,101205.30
2019-01-10T23:23:13.675Z,101197.30
2019-01-10T23:25:44.893Z,101192.22
2019-01-10T23:28:14.485Z,101199.30
2019-01-10T23:30:50.572Z,101193.16
2019-01-10T23:33:20.712Z,101198.53
2019-01-10T23:35:53.868Z,101189.58
2019-01-10T23:38:24.098Z,101189.89
2019-01-10T23:40:53.419Z,101191.74
2019-01-10T23:43:22.752Z,101194.74
2019-01-10T23:45:52.094Z,101189.59
2019-01-10T23:48:21.702Z,101185.11
2019-01-10T23:50:51.074Z,101191.20
2019-01-10T23:53:20.653Z,101187.89
2019-01-10T23:55:50.223Z,101184.73
2019-01-10T23:58:19.827Z,101185.73
